createdAt,value
2023-04-18T00:00:36.765Z,14.73
2023-04-18T00:05:41.570Z,14.66
2023-04-18T00:10:45.001Z,14.55
2023-04-18T00:15:48.700Z,14.75
2023-04-18T00:20:53.573Z,14.98
2023-04-18T00:25:57.047Z,14.92
2023-04-18T00:31:00.624Z,14.58
2023-04-18T00:36:06.596Z,14.56
2023-04-18T00:41:10.868Z,14.52
2023-04-18T00:46:14.969Z,14.70
2023-04-18T00:51:20.099Z,14.54
2023-04-18T00:56:25.819Z,14.47
2023-04-18T01:01:29.378Z,14.52
2023-04-18T01:06:34.608Z,14.29
2023-04-18T01:11:38.029Z,14.28
2023-04-18T01:16:41.743Z,14.28
2023-04-18T01:21:47.298Z,14.48
2023-04-18T01:26:52.249Z,14.52
2023-04-18T01:31:55.741Z,14.62
2023-04-18T01:36:59.139Z,14.45
2023-04-18T01:42:04.094Z,14.24
2023-04-18T01:47:07.521Z,14.09
2023-04-18T01:52:14.092Z,13.74
2023-04-18T01:57:18.984Z,14.29
2023-04-18T02:02:22.899Z,14.19
2023-04-18T02:07:26.432Z,13.90
2023-04-18T02:12:34.178Z,14.16
2023-04-18T02:17:37.929Z,13.83
2023-04-18T02:22:41.453Z,13.86
2023-04-18T02:27:46.326Z,14.21
2023-04-18T02:32:52.947Z,14.15
2023-04-18T02:38:00.599Z,14.21
2023-04-18T02:43:05.728Z,14.42
2023-04-18T02:48:09.330Z,14.30
2023-04-18T02:53:12.965Z,14.25
2023-04-18T02:58:30.465Z,14.41
2023-04-18T03:03:56.686Z,13.91
2023-04-18T03:09:13.852Z,13.83
2023-04-18T03:14:23.610Z,14.04
2023-04-18T03:19:31.838Z,13.75
2023-04-18T03:24:41.126Z,13.80
2023-04-18T03:29:47.561Z,13.85
2023-04-18T03:34:52.992Z,13.58
2023-04-18T03:39:57.177Z,13.86
2023-04-18T03:45:05.699Z,14.05
2023-04-18T03:50:11.891Z,13.92
2023-04-18T03:55:17.211Z,14.03
2023-04-18T04:00:22.135Z,13.56
2023-04-18T04:05:35.768Z,13.63
2023-04-18T04:10:39.508Z,14.03
2023-04-18T04:15:44.653Z,13.90
2023-04-18T04:20:49.254Z,13.68
2023-04-18T04:26:06.701Z,13.87
2023-04-18T04:31:22.199Z,14.03
2023-04-18T04:36:27.850Z,13.84
2023-04-18T04:41:37.592Z,13.80
2023-04-18T04:46:44.849Z,13.90
2023-04-18T04:51:55.088Z,13.97
2023-04-18T04:56:58.650Z,13.99
2023-04-18T05:02:03.997Z,13.85
2023-04-18T05:07:07.669Z,13.83
2023-04-18T05:12:11.135Z,14.30
2023-04-18T05:17:15.930Z,14.24
2023-04-18T05:22:19.538Z,13.85
2023-04-18T05:27:23.101Z,14.06
2023-04-18T05:32:27.983Z,13.57
2023-04-18T05:37:31.459Z,13.80
2023-04-18T05:42:34.972Z,14.20
2023-04-18T05:47:40.225Z,14.05
2023-04-18T05:52:43.844Z,14.12
2023-04-18T05:57:47.494Z,14.15
2023-04-18T06:02:52.469Z,14.43
2023-04-18T06:07:56.086Z,14.34
2023-04-18T06:12:59.550Z,14.46
2023-04-18T06:18:04.359Z,14.29
2023-04-18T06:23:08.182Z,14.38
2023-04-18T06:28:11.604Z,14.33
2023-04-18T06:33:16.480Z,14.29
2023-04-18T06:38:20.057Z,14.16
2023-04-18T06:43:23.452Z,14.29
2023-04-18T06:48:28.714Z,14.65
2023-04-18T06:53:32.183Z,14.15
2023-04-18T06:58:35.690Z,14.45
2023-04-18T07:03:40.657Z,14.72
2023-04-18T07:08:44.117Z,14.59
2023-04-18T07:13:48.688Z,14.69
2023-04-18T07:18:53.573Z,15.01
2023-04-18T07:23:57.056Z,14.94
2023-04-18T07:29:00.549Z,14.98
2023-04-18T07:34:05.711Z,15.16
2023-04-18T07:39:09.380Z,15.33
2023-04-18T07:44:13.012Z,15.70
2023-04-18T07:49:17.948Z,14.83
2023-04-18T07:54:21.482Z,15.30
2023-04-18T07:59:24.882Z,15.25
2023-04-18T08:04:30.620Z,14.99
2023-04-18T08:09:34.242Z,15.32
2023-04-18T08:14:37.805Z,15.62
2023-04-18T08:19:44.360Z,15.75
2023-04-18T08:25:01.433Z,16.44
2023-04-18T08:30:08.787Z,16.97
2023-04-18T08:35:13.653Z,17.06
2023-04-18T08:40:18.557Z,17.45
2023-04-18T08:45:22.218Z,17.92
2023-04-18T08:50:27.125Z,17.70
2023-04-18T08:55:30.679Z,17.55
2023-04-18T09:00:35.262Z,18.62
2023-04-18T09:05:40.195Z,19.67
2023-04-18T09:10:46.468Z,19.35
2023-04-18T09:15:56.085Z,20.28
2023-04-18T09:21:18.510Z,19.23
2023-04-18T09:26:34.710Z,19.05
2023-04-18T09:31:55.807Z,19.29
2023-04-18T09:37:11.324Z,18.95
2023-04-18T09:42:14.945Z,18.95
2023-04-18T09:47:18.352Z,18.86
2023-04-18T09:52:24.762Z,19.37
2023-04-18T09:57:29.802Z,19.32
2023-04-18T10:02:42.212Z,19.46
2023-04-18T10:07:48.482Z,19.49
2023-04-18T10:12:55.221Z,19.31
2023-04-18T10:18:05.190Z,19.60
2023-04-18T10:23:37.791Z,19.10
2023-04-18T10:28:52.877Z,19.84
2023-04-18T10:39:22.802Z,19.70
2023-04-18T10:44:27.469Z,19.60
2023-04-18T10:49:34.191Z,19.58
2023-04-18T10:54:40.021Z,18.90
2023-04-18T10:59:44.379Z,19.78
2023-04-18T11:04:50.916Z,19.78
2023-04-18T11:09:56.076Z,19.52
2023-04-18T11:15:01.389Z,19.75
2023-04-18T11:20:09.046Z,20.11
2023-04-18T11:25:14.619Z,19.61
2023-04-18T11:30:18.520Z,19.76
2023-04-18T11:35:22.150Z,20.06
2023-04-18T11:40:27.172Z,20.42
2023-04-18T11:45:31.198Z,20.89
2023-04-18T11:50:38.262Z,20.35
2023-04-18T11:55:43.191Z,20.63
2023-04-18T12:00:46.623Z,21.10
2023-04-18T12:05:59.707Z,21.41
2023-04-18T12:11:04.995Z,22.18
2023-04-18T12:16:08.917Z,22.12
2023-04-18T12:21:12.412Z,22.48
2023-04-18T12:26:18.613Z,22.00
2023-04-18T12:31:22.569Z,21.35
2023-04-18T12:36:28.370Z,21.97
2023-04-18T12:41:33.377Z,22.46
2023-04-18T12:46:36.947Z,21.89
2023-04-18T12:51:40.899Z,22.60
2023-04-18T12:56:46.200Z,22.67
2023-04-18T13:01:49.674Z,22.64
2023-04-18T13:06:53.121Z,23.37
2023-04-18T13:11:58.483Z,22.83
2023-04-18T13:17:01.990Z,23.98
2023-04-18T13:22:05.773Z,22.86
2023-04-18T13:27:11.307Z,23.77
2023-04-18T13:32:14.753Z,23.31
2023-04-18T13:37:18.408Z,23.74
2023-04-18T13:42:23.248Z,22.89
2023-04-18T13:47:26.917Z,23.58
2023-04-18T13:52:30.411Z,24.01
2023-04-18T13:57:37.186Z,24.47
2023-04-18T14:02:40.896Z,24.02
2023-04-18T14:07:44.511Z,24.21
2023-04-18T14:12:49.312Z,22.71
2023-04-18T14:17:52.788Z,23.36
2023-04-18T14:22:56.378Z,23.52
2023-04-18T14:28:09.365Z,24.21
2023-04-18T14:33:12.864Z,23.89
2023-04-18T14:38:16.491Z,24.09
2023-04-18T14:43:21.399Z,23.69
2023-04-18T14:48:24.891Z,23.57
2023-04-18T14:53:28.372Z,23.88
2023-04-18T14:58:33.166Z,24.18
2023-04-18T15:03:36.687Z,24.63
2023-04-18T15:08:40.574Z,24.57
2023-04-18T15:13:47.513Z,24.21
2023-04-18T15:18:50.988Z,23.34
2023-04-18T15:23:54.460Z,24.13
2023-04-18T15:28:59.892Z,24.05
2023-04-18T15:34:03.761Z,23.74
2023-04-18T15:39:09.039Z,23.43
2023-04-18T15:44:14.477Z,22.84
2023-04-18T15:49:18.017Z,22.41
2023-04-18T15:54:21.519Z,22.25
2023-04-18T15:59:26.312Z,22.73
2023-04-18T16:04:29.875Z,22.53
2023-04-18T16:09:33.310Z,22.21
2023-04-18T16:14:38.157Z,21.89
2023-04-18T16:19:41.650Z,21.27
2023-04-18T16:24:45.032Z,22.12
2023-04-18T16:29:49.845Z,22.01
2023-04-18T16:34:53.234Z,21.57
2023-04-18T16:39:56.668Z,21.19
2023-04-18T16:45:02.677Z,21.04
2023-04-18T16:50:09.123Z,21.31
2023-04-18T16:55:12.581Z,21.08
2023-04-18T17:00:17.858Z,20.51
2023-04-18T17:05:22.986Z,20.35
2023-04-18T17:10:26.575Z,19.90
2023-04-18T17:15:31.816Z,20.56
2023-04-18T17:20:36.007Z,20.78
2023-04-18T17:25:39.417Z,20.69
2023-04-18T17:30:44.302Z,20.70
2023-04-18T17:35:48.144Z,20.55
2023-04-18T17:40:59.004Z,20.36
2023-04-18T17:46:04.082Z,20.21
2023-04-18T17:51:07.763Z,20.18
2023-04-18T17:56:11.268Z,20.12
2023-04-18T18:01:16.673Z,19.82
2023-04-18T18:06:20.550Z,19.76
2023-04-18T18:11:24.330Z,20.14
2023-04-18T18:16:29.442Z,19.83
2023-04-18T18:21:32.936Z,20.20
2023-04-18T18:26:36.911Z,19.77
2023-04-18T18:31:42.583Z,20.18
2023-04-18T18:36:46.173Z,20.19
2023-04-18T18:41:49.691Z,20.14
2023-04-18T18:46:54.592Z,20.15
2023-04-18T18:51:58.074Z,20.01
2023-04-18T18:57:02.559Z,19.83
2023-04-18T19:02:07.981Z,19.43
2023-04-18T19:07:11.446Z,19.68
2023-04-18T19:12:14.915Z,19.56
2023-04-18T19:17:21.878Z,19.36
2023-04-18T19:22:25.511Z,18.65
2023-04-18T19:27:28.990Z,19.15
2023-04-18T19:32:33.821Z,19.20
2023-04-18T19:37:37.227Z,19.07
2023-04-18T19:42:40.869Z,18.72
2023-04-18T19:47:47.569Z,19.01
2023-04-18T19:52:54.598Z,19.09
2023-04-18T19:57:58.024Z,18.99
2023-04-18T20:03:02.991Z,18.68
2023-04-18T20:08:07.165Z,18.80
2023-04-18T20:13:10.596Z,18.38
2023-04-18T20:18:15.408Z,18.89
2023-04-18T20:23:19.068Z,18.63
2023-04-18T20:28:22.477Z,19.03
2023-04-18T20:33:27.305Z,18.80
2023-04-18T20:38:30.885Z,18.42
2023-04-18T20:43:37.492Z,18.59
2023-04-18T20:48:43.855Z,18.75
2023-04-18T20:53:47.272Z,18.44
2023-04-18T20:58:50.682Z,18.14
2023-04-18T21:03:55.653Z,18.14
2023-04-18T21:08:59.270Z,18.38
2023-04-18T21:14:03.771Z,18.04
2023-04-18T21:19:08.717Z,18.24
2023-04-18T21:24:12.317Z,18.18
2023-04-18T21:29:15.896Z,18.08
2023-04-18T21:34:20.823Z,18.31
2023-04-18T21:39:24.319Z,18.10
2023-04-18T21:44:27.697Z,17.89
2023-04-18T21:49:32.867Z,18.14
2023-04-18T21:54:36.305Z,17.66
2023-04-18T21:59:39.703Z,17.75
2023-04-18T22:04:44.464Z,17.69
2023-04-18T22:09:47.979Z,17.54
2023-04-18T22:14:52.722Z,17.24
2023-04-18T22:19:57.682Z,17.64
2023-04-18T22:25:01.104Z,17.35
2023-04-18T22:30:05.229Z,17.85
2023-04-18T22:35:10.902Z,18.30
2023-04-18T22:40:15.620Z,17.79
2023-04-18T22:45:19.358Z,17.50
2023-04-18T22:50:24.077Z,17.32
2023-04-18T22:55:27.464Z,17.06
2023-04-18T23:00:30.848Z,17.49
2023-04-18T23:05:35.564Z,17.50
2023-04-18T23:10:38.980Z,17.25
2023-04-18T23:15:42.558Z,16.99
2023-04-18T23:20:47.601Z,17.24
2023-04-18T23:25:51.005Z,17.17
2023-04-18T23:30:54.404Z,16.65
2023-04-18T23:35:59.205Z,16.98
2023-04-18T23:41:02.560Z,16.08
2023-04-18T23:46:06.203Z,17.00
2023-04-18T23:51:11.143Z,16.86
2023-04-18T23:56:14.540Z,17.17
